sensor_id;sensor_type;location;lat;lon;timestamp;pressure;altitude;pressure_sealevel;temperature;humidity
84590;BME280;76270;48.816;8.740;2024-02-26T18:13:12;94162.88;;;8.99;63.97
84590;BME280;76270;48.816;8.740;2024-02-26T18:15:14;94166.22;;;9.01;63.01
84590;BME280;76270;48.816;8.740;2024-02-26T18:17:16;94173.91;;;8.94;62.71
84590;BME280;76270;48.816;8.740;2024-02-26T18:19:20;94176.38;;;8.96;62.14
84590;BME280;76270;48.816;8.740;2024-02-26T18:21:23;94184.78;;;8.91;61.83
84590;BME280;76270;48.816;8.740;2024-02-26T18:23:27;94180.31;;;8.92;61.69
84590;BME280;76270;48.816;8.740;2024-02-26T18:25:29;94183.84;;;8.83;62.05
84590;BME280;76270;48.816;8.740;2024-02-26T18:27:30;94187.47;;;8.82;61.73
84590;BME280;76270;48.816;8.740;2024-02-26T18:29:33;94186.50;;;8.83;61.32
84590;BME280;76270;48.816;8.740;2024-02-26T18:31:35;94194.41;;;8.83;60.91
84590;BME280;76270;48.816;8.740;2024-02-26T18:33:37;94195.69;;;8.79;60.58
84590;BME280;76270;48.816;8.740;2024-02-26T18:35:39;94202.28;;;8.92;59.07
84590;BME280;76270;48.816;8.740;2024-02-26T18:37:41;94198.94;;;8.90;59.32
84590;BME280;76270;48.816;8.740;2024-02-26T18:39:44;94209.03;;;8.77;60.12
84590;BME280;76270;48.816;8.740;2024-02-26T18:41:46;94210.41;;;8.81;59.31
84590;BME280;76270;48.816;8.740;2024-02-26T18:43:49;94212.53;;;8.78;59.47
84590;BME280;76270;48.816;8.740;2024-02-26T18:45:51;94206.16;;;8.71;61.22
84590;BME280;76270;48.816;8.740;2024-02-26T18:47:53;94206.16;;;8.71;59.83
84590;BME280;76270;48.816;8.740;2024-02-26T18:49:55;94210.88;;;8.67;59.68
84590;BME280;76270;48.816;8.740;2024-02-26T18:51:58;94216.16;;;8.67;59.68
84590;BME280;76270;48.816;8.740;2024-02-26T18:54:00;94217.00;;;8.68;59.81
84590;BME280;76270;48.816;8.740;2024-02-26T18:56:02;94227.03;;;8.64;64.94
84590;BME280;76270;48.816;8.740;2024-02-26T18:58:04;94221.66;;;8.56;60.45
84590;BME280;76270;48.816;8.740;2024-02-26T19:00:07;94226.34;;;8.62;59.71
84590;BME280;76270;48.816;8.740;2024-02-26T19:02:11;94228.69;;;8.65;59.31
84590;BME280;76270;48.816;8.740;2024-02-26T19:04:14;94227.78;;;8.56;60.83
84590;BME280;76270;48.816;8.740;2024-02-26T19:06:16;94233.13;;;8.65;59.23
84590;BME280;76270;48.816;8.740;2024-02-26T19:08:18;94226.63;;;8.59;59.52
84590;BME280;76270;48.816;8.740;2024-02-26T19:10:20;94248.22;;;8.54;59.64
84590;BME280;76270;48.816;8.740;2024-02-26T19:12:22;94243.59;;;8.56;60.54
84590;BME280;76270;48.816;8.740;2024-02-26T19:14:25;94248.44;;;8.61;59.17
84590;BME280;76270;48.816;8.740;2024-02-26T19:16:27;94253.72;;;8.61;60.11
84590;BME280;76270;48.816;8.740;2024-02-26T19:18:36;94253.47;;;8.54;59.33
84590;BME280;76270;48.816;8.740;2024-02-26T19:20:38;94254.84;;;8.58;59.30
84590;BME280;76270;48.816;8.740;2024-02-26T19:22:40;94258.22;;;8.51;59.53
84590;BME280;76270;48.816;8.740;2024-02-26T19:24:43;94253.06;;;8.49;59.75
84590;BME280;76270;48.816;8.740;2024-02-26T19:26:45;94252.97;;;8.41;59.97
84590;BME280;76270;48.816;8.740;2024-02-26T19:28:47;94256.06;;;8.37;60.12
84590;BME280;76270;48.816;8.740;2024-02-26T19:30:49;94257.16;;;8.34;60.48
84590;BME280;76270;48.816;8.740;2024-02-26T19:33:00;94267.56;;;8.36;60.40
84590;BME280;76270;48.816;8.740;2024-02-26T19:35:17;94262.72;;;8.31;60.51
84590;BME280;76270;48.816;8.740;2024-02-26T19:37:29;94269.81;;;8.31;60.86
84590;BME280;76270;48.816;8.740;2024-02-26T19:39:40;94267.72;;;8.34;60.72
84590;BME280;76270;48.816;8.740;2024-02-26T19:42:03;94272.84;;;8.36;60.50
84590;BME280;76270;48.816;8.740;2024-02-26T19:44:21;94275.78;;;8.33;60.63
84590;BME280;76270;48.816;8.740;2024-02-26T19:46:29;94277.88;;;8.29;61.00
84590;BME280;76270;48.816;8.740;2024-02-26T19:48:50;94284.38;;;8.25;61.30
84590;BME280;76270;48.816;8.740;2024-02-26T19:51:11;94285.09;;;8.27;61.28
84590;BME280;76270;48.816;8.740;2024-02-26T19:53:34;94285.34;;;8.24;61.87
84590;BME280;76270;48.816;8.740;2024-02-26T19:55:47;94291.63;;;8.23;67.39
84590;BME280;76270;48.816;8.740;2024-02-26T19:57:52;94287.03;;;8.16;62.65
84590;BME280;76270;48.816;8.740;2024-02-26T20:00:20;94292.75;;;8.11;62.50
84590;BME280;76270;48.816;8.740;2024-02-26T20:02:35;94300.50;;;8.13;62.94
84590;BME280;76270;48.816;8.740;2024-02-26T20:04:51;94301.34;;;8.13;64.14
84590;BME280;76270;48.816;8.740;2024-02-26T20:07:09;94307.06;;;8.09;63.22
84590;BME280;76270;48.816;8.740;2024-02-26T20:09:20;94315.75;;;8.19;62.88
84590;BME280;76270;48.816;8.740;2024-02-26T20:11:43;94306.34;;;8.16;62.91
84590;BME280;76270;48.816;8.740;2024-02-26T20:14:04;94309.13;;;8.15;63.52
84590;BME280;76270;48.816;8.740;2024-02-26T20:16:36;94312.84;;;8.12;63.15
84590;BME280;76270;48.816;8.740;2024-02-26T20:18:55;94316.09;;;8.06;64.76
84590;BME280;76270;48.816;8.740;2024-02-26T20:21:26;94317.03;;;8.05;64.02
84590;BME280;76270;48.816;8.740;2024-02-26T20:23:35;94323.00;;;8.07;67.55
84590;BME280;76270;48.816;8.740;2024-02-26T20:25:44;94325.06;;;8.03;63.47
84590;BME280;76270;48.816;8.740;2024-02-26T20:27:57;94329.00;;;7.99;63.85
84590;BME280;76270;48.816;8.740;2024-02-26T20:30:12;94336.06;;;7.99;63.78
84590;BME280;76270;48.816;8.740;2024-02-26T20:32:18;94341.75;;;8.04;63.55
84590;BME280;76270;48.816;8.740;2024-02-26T20:34:27;94334.66;;;8.04;63.55
84590;BME280;76270;48.816;8.740;2024-02-26T20:36:37;94339.38;;;8.01;63.73
84590;BME280;76270;48.816;8.740;2024-02-26T20:38:47;94346.59;;;7.99;64.46
84590;BME280;76270;48.816;8.740;2024-02-26T20:41:04;94350.38;;;7.96;65.99
84590;BME280;76270;48.816;8.740;2024-02-26T20:43:06;94356.88;;;8.02;65.34
84590;BME280;76270;48.816;8.740;2024-02-26T20:45:31;94358.00;;;8.09;63.62
84590;BME280;76270;48.816;8.740;2024-02-26T20:47:57;94371.88;;;8.01;65.91
84590;BME280;76270;48.816;8.740;2024-02-26T20:50:26;94367.84;;;7.97;64.55
84590;BME280;76270;48.816;8.740;2024-02-26T20:52:44;94372.03;;;8.00;65.78
84590;BME280;76270;48.816;8.740;2024-02-26T20:57:36;94383.41;;;7.91;66.28
84590;BME280;76270;48.816;8.740;2024-02-26T20:59:44;94373.81;;;7.90;65.11
84590;BME280;76270;48.816;8.740;2024-02-26T21:02:01;94380.88;;;7.89;65.39
84590;BME280;76270;48.816;8.740;2024-02-26T21:04:35;94381.59;;;7.91;65.01
84590;BME280;76270;48.816;8.740;2024-02-26T21:07:00;94392.81;;;7.84;65.65
84590;BME280;76270;48.816;8.740;2024-02-26T21:11:41;94392.69;;;7.85;65.97
84590;BME280;76270;48.816;8.740;2024-02-26T21:13:55;94390.06;;;7.85;65.93
84590;BME280;76270;48.816;8.740;2024-02-26T21:16:14;94388.53;;;7.83;66.04
84590;BME280;76270;48.816;8.740;2024-02-26T21:18:29;94386.72;;;7.83;65.94
84590;BME280;76270;48.816;8.740;2024-02-26T21:20:42;94388.25;;;7.76;66.42
84590;BME280;76270;48.816;8.740;2024-02-26T21:22:56;94391.16;;;7.73;66.53
84590;BME280;76270;48.816;8.740;2024-02-26T21:25:19;94394.06;;;7.70;66.54
84590;BME280;76270;48.816;8.740;2024-02-26T21:27:32;94402.81;;;7.71;67.00
84590;BME280;76270;48.816;8.740;2024-02-26T21:29:38;94415.03;;;7.72;66.39
84590;BME280;76270;48.816;8.740;2024-02-26T21:31:57;94422.38;;;7.68;67.35
84590;BME280;76270;48.816;8.740;2024-02-26T21:34:18;94421.50;;;7.58;67.33
84590;BME280;76270;48.816;8.740;2024-02-26T21:36:35;94438.03;;;7.60;68.37
84590;BME280;76270;48.816;8.740;2024-02-26T21:38:58;94434.13;;;7.64;66.83
84590;BME280;76270;48.816;8.740;2024-02-26T21:41:23;94450.94;;;7.63;68.03
84590;BME280;76270;48.816;8.740;2024-02-26T21:43:33;94458.84;;;7.63;67.64
84590;BME280;76270;48.816;8.740;2024-02-26T21:45:48;94461.44;;;7.54;67.65
84590;BME280;76270;48.816;8.740;2024-02-26T21:47:57;94462.13;;;7.56;67.40
84590;BME280;76270;48.816;8.740;2024-02-26T21:50:16;94473.38;;;7.58;67.84
84590;BME280;76270;48.816;8.740;2024-02-26T21:52:42;94471.28;;;7.52;67.40
84590;BME280;76270;48.816;8.740;2024-02-26T21:54:58;94476.81;;;7.49;67.47
84590;BME280;76270;48.816;8.740;2024-02-26T21:57:10;94477.78;;;7.47;67.78
84590;BME280;76270;48.816;8.740;2024-02-26T21:59:23;94473.72;;;7.43;67.65
84590;BME280;76270;48.816;8.740;2024-02-26T22:01:32;94475.09;;;7.38;68.20
84590;BME280;76270;48.816;8.740;2024-02-26T22:03:52;94473.56;;;7.35;68.63
84590;BME280;76270;48.816;8.740;2024-02-26T22:06:05;94482.72;;;7.31;68.77
84590;BME280;76270;48.816;8.740;2024-02-26T22:08:20;94484.53;;;7.31;68.94
84590;BME280;76270;48.816;8.740;2024-02-26T22:10:30;94490.75;;;7.30;68.86
84590;BME280;76270;48.816;8.740;2024-02-26T22:12:44;94486.16;;;7.32;68.96
84590;BME280;76270;48.816;8.740;2024-02-26T22:15:00;94490.75;;;7.30;69.00
84590;BME280;76270;48.816;8.740;2024-02-26T22:17:11;94498.28;;;7.34;68.81
84590;BME280;76270;48.816;8.740;2024-02-26T22:19:17;94504.50;;;7.33;69.16
84590;BME280;76270;48.816;8.740;2024-02-26T22:21:34;94494.53;;;7.37;68.40
84590;BME280;76270;48.816;8.740;2024-02-26T22:24:06;94499.41;;;7.41;68.83
84590;BME280;76270;48.816;8.740;2024-02-26T22:29:03;94500.34;;;7.40;70.17
84590;BME280;76270;48.816;8.740;2024-02-26T22:31:35;94506.72;;;7.38;68.06
84590;BME280;76270;48.816;8.740;2024-02-26T22:33:45;94509.63;;;7.35;67.84
84590;BME280;76270;48.816;8.740;2024-02-26T22:35:52;94500.50;;;7.39;68.33
84590;BME280;76270;48.816;8.740;2024-02-26T22:38:17;94507.72;;;7.37;68.23
84590;BME280;76270;48.816;8.740;2024-02-26T22:40:34;94509.63;;;7.35;68.93
84590;BME280;76270;48.816;8.740;2024-02-26T22:42:50;94515.41;;;7.29;69.00
84590;BME280;76270;48.816;8.740;2024-02-26T22:45:09;94511.97;;;7.28;69.36
84590;BME280;76270;48.816;8.740;2024-02-26T22:47:18;94511.44;;;7.34;72.18
84590;BME280;76270;48.816;8.740;2024-02-26T22:49:43;94513.09;;;7.35;71.17
84590;BME280;76270;48.816;8.740;2024-02-26T22:52:15;94519.16;;;7.26;70.75
84590;BME280;76270;48.816;8.740;2024-02-26T22:54:35;94525.41;;;7.25;69.82
84590;BME280;76270;48.816;8.740;2024-02-26T22:56:54;94517.09;;;7.30;70.96
84590;BME280;76270;48.816;8.740;2024-02-26T22:59:23;94516.41;;;7.28;71.24
84590;BME280;76270;48.816;8.740;2024-02-26T23:01:47;94526.34;;;7.24;70.63
84590;BME280;76270;48.816;8.740;2024-02-26T23:04:09;94531.28;;;7.18;69.52
84590;BME280;76270;48.816;8.740;2024-02-26T23:06:24;94529.66;;;7.17;69.78
84590;BME280;76270;48.816;8.740;2024-02-26T23:08:36;94538.66;;;7.14;70.58
84590;BME280;76270;48.816;8.740;2024-02-26T23:10:48;94531.69;;;7.13;70.31
84590;BME280;76270;48.816;8.740;2024-02-26T23:12:53;94539.19;;;7.18;71.39
84590;BME280;76270;48.816;8.740;2024-02-26T23:15:09;94532.53;;;7.44;72.31
84590;BME280;76270;48.816;8.740;2024-02-26T23:17:23;94534.19;;;7.15;70.57
84590;BME280;76270;48.816;8.740;2024-02-26T23:19:56;94535.00;;;7.06;70.44
84590;BME280;76270;48.816;8.740;2024-02-26T23:22:12;94534.25;;;7.04;70.39
84590;BME280;76270;48.816;8.740;2024-02-26T23:24:41;94533.00;;;6.98;70.84
84590;BME280;76270;48.816;8.740;2024-02-26T23:26:52;94536.47;;;6.99;71.13
84590;BME280;76270;48.816;8.740;2024-02-26T23:29:09;94536.72;;;6.96;70.84
84590;BME280;76270;48.816;8.740;2024-02-26T23:31:20;94536.38;;;7.30;73.37
84590;BME280;76270;48.816;8.740;2024-02-26T23:33:29;94540.16;;;7.37;72.95
84590;BME280;76270;48.816;8.740;2024-02-26T23:35:37;94537.84;;;7.23;72.01
84590;BME280;76270;48.816;8.740;2024-02-26T23:37:48;94540.44;;;6.93;71.85
84590;BME280;76270;48.816;8.740;2024-02-26T23:39:58;94537.44;;;6.77;71.88
84590;BME280;76270;48.816;8.740;2024-02-26T23:42:17;94538.91;;;7.11;73.04
84590;BME280;76270;48.816;8.740;2024-02-26T23:44:30;94553.78;;;7.22;72.26
84590;BME280;76270;48.816;8.740;2024-02-26T23:49:06;94544.09;;;7.02;73.54
84590;BME280;76270;48.816;8.740;2024-02-26T23:51:13;94544.09;;;7.22;73.33
84590;BME280;76270;48.816;8.740;2024-02-26T23:53:30;94551.47;;;7.28;73.42
84590;BME280;76270;48.816;8.740;2024-02-26T23:55:43;94547.25;;;6.96;71.65
84590;BME280;76270;48.816;8.740;2024-02-26T23:57:53;94545.63;;;6.83;71.92
